sensor_id;sensor_type;location;lat;lon;timestamp;temperature;humidity
66150;DHT22;52952;50.904;20.648;2022-08-07T00:00:16;23;84
66150;DHT22;52952;50.904;20.648;2022-08-07T00:07:13;23;84
66150;DHT22;52952;50.904;20.648;2022-08-07T00:14:17;23;84
66150;DHT22;52952;50.904;20.648;2022-08-07T00:21:18;23;84
66150;DHT22;52952;50.904;20.648;2022-08-07T00:28:02;23;84
66150;DHT22;52952;50.904;20.648;2022-08-07T00:35:03;23;84
66150;DHT22;52952;50.904;20.648;2022-08-07T00:42:07;23;84
66150;DHT22;52952;50.904;20.648;2022-08-07T00:49:02;23;84
66150;DHT22;52952;50.904;20.648;2022-08-07T00:56:05;23;84
66150;DHT22;52952;50.904;20.648;2022-08-07T01:00:21;23;84
66150;DHT22;52952;50.904;20.648;2022-08-07T01:07:05;24;83
66150;DHT22;52952;50.904;20.648;2022-08-07T01:14:03;24;83
66150;DHT22;52952;50.904;20.648;2022-08-07T01:21:26;24;83
66150;DHT22;52952;50.904;20.648;2022-08-07T01:28:04;24;83
66150;DHT22;52952;50.904;20.648;2022-08-07T01:35:19;23;85
66150;DHT22;52952;50.904;20.648;2022-08-07T01:42:05;23;85
66150;DHT22;52952;50.904;20.648;2022-08-07T01:49:03;23;85
66150;DHT22;52952;50.904;20.648;2022-08-07T01:56:21;23;85
66150;DHT22;52952;50.904;20.648;2022-08-07T02:00:15;23;85
66150;DHT22;52952;50.904;20.648;2022-08-07T02:07:11;23;86
66150;DHT22;52952;50.904;20.648;2022-08-07T02:14:07;23;86
66150;DHT22;52952;50.904;20.648;2022-08-07T02:21:18;23;86
66150;DHT22;52952;50.904;20.648;2022-08-07T02:28:08;23;86
66150;DHT22;52952;50.904;20.648;2022-08-07T02:35:33;23;87
66150;DHT22;52952;50.904;20.648;2022-08-07T02:42:11;23;87
66150;DHT22;52952;50.904;20.648;2022-08-07T02:49:21;23;87
66150;DHT22;52952;50.904;20.648;2022-08-07T02:56:40;23;87
66150;DHT22;52952;50.904;20.648;2022-08-07T03:00:15;23;87
66150;DHT22;52952;50.904;20.648;2022-08-07T03:07:09;23;87
66150;DHT22;52952;50.904;20.648;2022-08-07T03:14:20;23;87
66150;DHT22;52952;50.904;20.648;2022-08-07T03:21:10;23;87
66150;DHT22;52952;50.904;20.648;2022-08-07T03:28:16;23;87
66150;DHT22;52952;50.904;20.648;2022-08-07T03:35:38;23;88
66150;DHT22;52952;50.904;20.648;2022-08-07T03:42:25;23;88
66150;DHT22;52952;50.904;20.648;2022-08-07T03:49:03;23;88
66150;DHT22;52952;50.904;20.648;2022-08-07T03:56:02;23;88
66150;DHT22;52952;50.904;20.648;2022-08-07T04:00:08;23;88
66150;DHT22;52952;50.904;20.648;2022-08-07T04:07:22;23;85
66150;DHT22;52952;50.904;20.648;2022-08-07T04:14:09;23;85
66150;DHT22;52952;50.904;20.648;2022-08-07T04:21:05;23;85
66150;DHT22;52952;50.904;20.648;2022-08-07T04:28:06;23;85
66150;DHT22;52952;50.904;20.648;2022-08-07T04:35:22;23;86
66150;DHT22;52952;50.904;20.648;2022-08-07T04:42:16;23;86
66150;DHT22;52952;50.904;20.648;2022-08-07T04:49:41;23;86
66150;DHT22;52952;50.904;20.648;2022-08-07T04:56:29;23;86
66150;DHT22;52952;50.904;20.648;2022-08-07T05:00:05;23;86
66150;DHT22;52952;50.904;20.648;2022-08-07T05:14:17;23;86
66150;DHT22;52952;50.904;20.648;2022-08-07T05:21:17;23;86
66150;DHT22;52952;50.904;20.648;2022-08-07T05:28:08;23;86
66150;DHT22;52952;50.904;20.648;2022-08-07T05:35:07;22;87
66150;DHT22;52952;50.904;20.648;2022-08-07T05:42:07;22;87
66150;DHT22;52952;50.904;20.648;2022-08-07T05:49:24;22;87
66150;DHT22;52952;50.904;20.648;2022-08-07T05:56:07;22;87
66150;DHT22;52952;50.904;20.648;2022-08-07T06:00:09;22;87
66150;DHT22;52952;50.904;20.648;2022-08-07T06:07:23;22;88
66150;DHT22;52952;50.904;20.648;2022-08-07T06:14:15;22;88
66150;DHT22;52952;50.904;20.648;2022-08-07T06:21:21;22;88
66150;DHT22;52952;50.904;20.648;2022-08-07T06:28:04;22;88
66150;DHT22;52952;50.904;20.648;2022-08-07T06:42:09;22;89
66150;DHT22;52952;50.904;20.648;2022-08-07T06:49:07;22;89
66150;DHT22;52952;50.904;20.648;2022-08-07T06:56:05;22;89
66150;DHT22;52952;50.904;20.648;2022-08-07T07:00:15;22;89
66150;DHT22;52952;50.904;20.648;2022-08-07T07:07:10;22;89
66150;DHT22;52952;50.904;20.648;2022-08-07T07:14:03;22;89
66150;DHT22;52952;50.904;20.648;2022-08-07T07:21:18;22;89
66150;DHT22;52952;50.904;20.648;2022-08-07T07:28:59;22;89
66150;DHT22;52952;50.904;20.648;2022-08-07T07:42:10;22;90
66150;DHT22;52952;50.904;20.648;2022-08-07T07:49:22;22;90
66150;DHT22;52952;50.904;20.648;2022-08-07T07:56:28;22;90
66150;DHT22;52952;50.904;20.648;2022-08-07T08:00:19;22;90
66150;DHT22;52952;50.904;20.648;2022-08-07T08:14:02;22;91
66150;DHT22;52952;50.904;20.648;2022-08-07T08:28:14;22;91
66150;DHT22;52952;50.904;20.648;2022-08-07T08:43:02;22;91
66150;DHT22;52952;50.904;20.648;2022-08-07T08:49:07;22;91
66150;DHT22;52952;50.904;20.648;2022-08-07T08:56:11;22;91
66150;DHT22;52952;50.904;20.648;2022-08-07T09:00:07;22;91
66150;DHT22;52952;50.904;20.648;2022-08-07T09:14:31;21;91
66150;DHT22;52952;50.904;20.648;2022-08-07T09:28:06;21;91
66150;DHT22;52952;50.904;20.648;2022-08-07T09:42:49;21;92
66150;DHT22;52952;50.904;20.648;2022-08-07T10:00:13;21;92
66150;DHT22;52952;50.904;20.648;2022-08-07T10:35:49;21;92
66150;DHT22;52952;50.904;20.648;2022-08-07T10:49:34;21;92
66150;DHT22;52952;50.904;20.648;2022-08-07T11:00:13;21;92
66150;DHT22;52952;50.904;20.648;2022-08-07T11:14:27;21;92
66150;DHT22;52952;50.904;20.648;2022-08-07T11:28:34;21;92
66150;DHT22;52952;50.904;20.648;2022-08-07T11:35:35;21;92
66150;DHT22;52952;50.904;20.648;2022-08-07T11:42:11;21;92
66150;DHT22;52952;50.904;20.648;2022-08-07T11:56:11;21;92
66150;DHT22;52952;50.904;20.648;2022-08-07T12:01:02;21;92
66150;DHT22;52952;50.904;20.648;2022-08-07T12:14:47;21;92
66150;DHT22;52952;50.904;20.648;2022-08-07T12:28:07;21;92
66150;DHT22;52952;50.904;20.648;2022-08-07T12:35:32;21;92
66150;DHT22;52952;50.904;20.648;2022-08-07T12:42:07;23.7;90
66150;DHT22;52952;50.904;20.648;2022-08-07T12:56:41;23.7;90
66150;DHT22;52952;50.904;20.648;2022-08-07T13:00:05;23.7;90
66150;DHT22;52952;50.904;20.648;2022-08-07T13:07:38;23.7;90
66150;DHT22;52952;50.904;20.648;2022-08-07T13:14:07;24.81;86
66150;DHT22;52952;50.904;20.648;2022-08-07T13:21:19;24.81;86
66150;DHT22;52952;50.904;20.648;2022-08-07T13:28:40;24.81;86
66150;DHT22;52952;50.904;20.648;2022-08-07T13:35:53;24.81;86
66150;DHT22;52952;50.904;20.648;2022-08-07T13:42:02;25;84
66150;DHT22;52952;50.904;20.648;2022-08-07T13:49:09;25;84
66150;DHT22;52952;50.904;20.648;2022-08-07T13:56:20;25;84
66150;DHT22;52952;50.904;20.648;2022-08-07T14:00:18;25;84
66150;DHT22;52952;50.904;20.648;2022-08-07T14:07:10;25;84
66150;DHT22;52952;50.904;20.648;2022-08-07T14:14:54;24;84
66150;DHT22;52952;50.904;20.648;2022-08-07T14:21:41;24;84
66150;DHT22;52952;50.904;20.648;2022-08-07T14:28:22;24;84
66150;DHT22;52952;50.904;20.648;2022-08-07T14:35:21;24;84
66150;DHT22;52952;50.904;20.648;2022-08-07T14:42:03;25;84
66150;DHT22;52952;50.904;20.648;2022-08-07T14:49:34;25;84
66150;DHT22;52952;50.904;20.648;2022-08-07T14:56:05;25;84
66150;DHT22;52952;50.904;20.648;2022-08-07T15:00:09;25;84
66150;DHT22;52952;50.904;20.648;2022-08-07T15:07:22;25;84
66150;DHT22;52952;50.904;20.648;2022-08-07T15:14:23;23;72
66150;DHT22;52952;50.904;20.648;2022-08-07T15:21:17;23;72
66150;DHT22;52952;50.904;20.648;2022-08-07T15:28:26;23;72
66150;DHT22;52952;50.904;20.648;2022-08-07T15:49:55;23;72
66150;DHT22;52952;50.904;20.648;2022-08-07T15:56:04;23;72
66150;DHT22;52952;50.904;20.648;2022-08-07T16:00:29;23;72
66150;DHT22;52952;50.904;20.648;2022-08-07T16:07:11;23;72
66150;DHT22;52952;50.904;20.648;2022-08-07T16:21:36;23;72
66150;DHT22;52952;50.904;20.648;2022-08-07T16:29:00;23;72
66150;DHT22;52952;50.904;20.648;2022-08-07T17:00:41;23;72
66150;DHT22;52952;50.904;20.648;2022-08-07T17:07:08;23;72
66150;DHT22;52952;50.904;20.648;2022-08-07T17:21:26;23;72
66150;DHT22;52952;50.904;20.648;2022-08-07T17:28:23;23;72
66150;DHT22;52952;50.904;20.648;2022-08-07T17:35:55;23;72
66150;DHT22;52952;50.904;20.648;2022-08-07T17:49:41;23;71
66150;DHT22;52952;50.904;20.648;2022-08-07T17:56:48;23;71
66150;DHT22;52952;50.904;20.648;2022-08-07T18:00:03;23;71
66150;DHT22;52952;50.904;20.648;2022-08-07T18:07:39;23;71
66150;DHT22;52952;50.904;20.648;2022-08-07T18:21:39;23;71
66150;DHT22;52952;50.904;20.648;2022-08-07T18:49:43;23;71
66150;DHT22;52952;50.904;20.648;2022-08-07T18:56:47;23;71
66150;DHT22;52952;50.904;20.648;2022-08-07T19:00:09;23;71
66150;DHT22;52952;50.904;20.648;2022-08-07T19:21:28;23;71
66150;DHT22;52952;50.904;20.648;2022-08-07T19:28:52;23;71
66150;DHT22;52952;50.904;20.648;2022-08-07T19:35:07;23;71
66150;DHT22;52952;50.904;20.648;2022-08-07T19:49:30;23;70
66150;DHT22;52952;50.904;20.648;2022-08-07T19:56:17;23;70
66150;DHT22;52952;50.904;20.648;2022-08-07T20:00:09;23;70
66150;DHT22;52952;50.904;20.648;2022-08-07T20:07:06;23;70
66150;DHT22;52952;50.904;20.648;2022-08-07T20:21:04;23;70
66150;DHT22;52952;50.904;20.648;2022-08-07T20:28:37;23;70
66150;DHT22;52952;50.904;20.648;2022-08-07T20:35:15;23;70
66150;DHT22;52952;50.904;20.648;2022-08-07T20:49:14;23;70
66150;DHT22;52952;50.904;20.648;2022-08-07T20:56:13;23;70
66150;DHT22;52952;50.904;20.648;2022-08-07T21:00:38;23;70
66150;DHT22;52952;50.904;20.648;2022-08-07T21:07:29;23;70
66150;DHT22;52952;50.904;20.648;2022-08-07T21:21:09;23;70
66150;DHT22;52952;50.904;20.648;2022-08-07T21:28:24;23;70
66150;DHT22;52952;50.904;20.648;2022-08-07T21:36:11;23;70
66150;DHT22;52952;50.904;20.648;2022-08-07T21:56:14;23;72
66150;DHT22;52952;50.904;20.648;2022-08-07T22:00:30;23;72
66150;DHT22;52952;50.904;20.648;2022-08-07T22:07:45;23;72
66150;DHT22;52952;50.904;20.648;2022-08-07T22:14:21;23;72
66150;DHT22;52952;50.904;20.648;2022-08-07T22:42:08;23;72
66150;DHT22;52952;50.904;20.648;2022-08-07T22:56:55;23;72
66150;DHT22;52952;50.904;20.648;2022-08-07T23:21:23;23;72
66150;DHT22;52952;50.904;20.648;2022-08-07T23:28:35;23;72
66150;DHT22;52952;50.904;20.648;2022-08-07T23:35:55;23;73
66150;DHT22;52952;50.904;20.648;2022-08-07T23:42:24;23;73
